Time,TemperatureF,DewpointF,PressureIn,WindDirection,WindDirectionDegrees,WindSpeedMPH,WindSpeedGustMPH,Humidity,HourlyPrecipIn,Conditions,Clouds,dailyrainin,SoftwareType,DateUTC
2013-01-13 00:01:00,32.9,25.5,29.64,North,0,1.0,1.0,74,0.00,,,0.00,meteohub,2013-01-13 08:01:00,
2013-01-13 00:06:00,32.9,25.5,29.64,North,0,1.0,1.0,74,0.00,,,0.00,meteohub,2013-01-13 08:06:00,
2013-01-13 00:11:00,32.5,25.2,29.64,North,0,1.0,1.0,74,0.00,,,0.00,meteohub,2013-01-13 08:11:00,
2013-01-13 00:16:00,32.5,25.5,29.64,North,0,0.0,1.0,75,0.00,,,0.00,meteohub,2013-01-13 08:16:00,
2013-01-13 00:21:00,32.4,25.3,29.65,NW,315,0.0,1.0,75,0.00,,,0.00,meteohub,2013-01-13 08:21:00,
2013-01-13 00:26:00,32.4,25.3,29.64,NW,315,0.0,1.0,75,0.00,,,0.00,meteohub,2013-01-13 08:26:00,
2013-01-13 00:31:00,32.2,25.2,29.64,NW,315,1.0,1.0,75,0.00,,,0.00,meteohub,2013-01-13 08:31:00,
2013-01-13 00:36:00,32.2,25.2,29.65,NW,315,1.0,1.0,75,0.00,,,0.00,meteohub,2013-01-13 08:36:00,
2013-01-13 00:41:00,32.4,25.7,29.65,NW,315,1.0,2.0,76,0.00,,,0.00,meteohub,2013-01-13 08:41:00,
2013-01-13 00:46:00,32.5,25.9,29.65,NW,315,0.0,2.0,76,0.00,,,0.00,meteohub,2013-01-13 08:46:00,
2013-01-13 00:51:00,32.7,26.1,29.65,NW,315,1.0,2.0,76,0.00,,,0.00,meteohub,2013-01-13 08:51:00,
2013-01-13 00:56:00,32.9,26.2,29.66,NW,315,1.0,1.0,76,0.00,,,0.00,meteohub,2013-01-13 08:56:00,
2013-01-13 01:01:00,33.1,26.4,29.66,WNW,293,1.0,2.0,76,0.00,,,0.00,meteohub,2013-01-13 09:01:00,
2013-01-13 01:06:00,33.3,26.6,29.66,WNW,293,1.0,2.0,76,0.00,,,0.00,meteohub,2013-01-13 09:06:00,
2013-01-13 01:11:00,33.3,26.6,29.66,NW,315,2.0,2.0,76,0.00,,,0.00,meteohub,2013-01-13 09:11:00,
2013-01-13 01:17:00,33.4,26.8,29.65,North,0,1.0,2.0,76,0.00,,,0.00,meteohub,2013-01-13 09:17:00,
2013-01-13 01:22:00,33.6,26.8,29.66,North,0,1.0,2.0,76,0.00,,,0.00,meteohub,2013-01-13 09:22:00,
2013-01-13 01:27:00,33.8,26.4,29.66,North,0,1.0,2.0,74,0.00,,,0.00,meteohub,2013-01-13 09:27:00,
2013-01-13 01:32:00,33.8,26.4,29.66,North,0,2.0,2.0,74,0.00,,,0.00,meteohub,2013-01-13 09:32:00,
2013-01-13 01:37:00,34.0,26.2,29.67,NW,315,1.0,2.0,73,0.00,,,0.00,meteohub,2013-01-13 09:37:00,
2013-01-13 01:42:00,34.2,26.4,29.66,NW,315,2.0,2.0,73,0.00,,,0.00,meteohub,2013-01-13 09:42:00,
2013-01-13 01:47:00,34.2,26.1,29.66,NW,315,2.0,2.0,72,0.00,,,0.00,meteohub,2013-01-13 09:47:00,
2013-01-13 01:52:00,34.2,26.1,29.66,NW,315,2.0,2.0,72,0.00,,,0.00,meteohub,2013-01-13 09:52:00,
2013-01-13 01:57:00,34.2,25.7,29.66,NW,315,1.0,2.0,71,0.00,,,0.00,meteohub,2013-01-13 09:57:00,
2013-01-13 02:02:00,34.0,25.5,29.66,NW,315,1.0,2.0,71,0.00,,,0.00,meteohub,2013-01-13 10:02:00,
2013-01-13 02:07:00,34.0,25.5,29.67,NW,315,1.0,2.0,71,0.00,,,0.00,meteohub,2013-01-13 10:07:00,
2013-01-13 02:12:00,33.6,25.5,29.66,NW,315,1.0,2.0,72,0.00,,,0.00,meteohub,2013-01-13 10:12:00,
2013-01-13 02:17:00,33.4,25.3,29.66,NW,315,2.0,2.0,72,0.00,,,0.00,meteohub,2013-01-13 10:17:00,
2013-01-13 02:22:00,33.4,25.3,29.66,NW,315,1.0,2.0,72,0.00,,,0.00,meteohub,2013-01-13 10:22:00,
2013-01-13 02:27:00,33.3,25.2,29.67,NW,315,1.0,2.0,72,0.00,,,0.00,meteohub,2013-01-13 10:27:00,
2013-01-13 02:32:00,33.1,25.0,29.67,NW,315,0.0,2.0,72,0.00,,,0.00,meteohub,2013-01-13 10:32:00,
2013-01-13 02:37:00,32.9,24.8,29.67,NW,315,1.0,2.0,72,0.00,,,0.00,meteohub,2013-01-13 10:37:00,
2013-01-13 02:42:00,32.9,24.8,29.67,NW,315,1.0,1.0,72,0.00,,,0.00,meteohub,2013-01-13 10:42:00,
2013-01-13 02:47:00,32.9,24.8,29.67,NW,315,0.0,1.0,72,0.00,,,0.00,meteohub,2013-01-13 10:47:00,
2013-01-13 02:52:00,32.7,24.6,29.67,NW,315,2.0,2.0,72,0.00,,,0.00,meteohub,2013-01-13 10:52:00,
2013-01-13 02:57:00,32.5,24.4,29.67,West,270,1.0,2.0,72,0.00,,,0.00,meteohub,2013-01-13 10:57:00,
2013-01-13 03:02:00,32.4,24.3,29.67,WSW,248,1.0,2.0,72,0.00,,,0.00,meteohub,2013-01-13 11:02:00,
2013-01-13 03:07:00,32.2,24.3,29.67,West,270,1.0,2.0,72,0.00,,,0.00,meteohub,2013-01-13 11:07:00,
2013-01-13 03:12:00,32.0,24.3,29.67,West,270,1.0,2.0,73,0.00,,,0.00,meteohub,2013-01-13 11:12:00,
2013-01-13 03:17:00,32.0,24.3,29.67,West,270,2.0,2.0,73,0.00,,,0.00,meteohub,2013-01-13 11:17:00,
2013-01-13 03:22:00,31.8,24.4,29.67,West,270,1.0,2.0,74,0.00,,,0.00,meteohub,2013-01-13 11:22:00,
2013-01-13 03:27:00,31.8,24.4,29.67,West,270,2.0,2.0,74,0.00,,,0.00,meteohub,2013-01-13 11:27:00,
2013-01-13 03:32:00,31.8,24.4,29.67,NW,315,2.0,3.0,74,0.00,,,0.00,meteohub,2013-01-13 11:32:00,
2013-01-13 03:37:00,31.6,24.3,29.67,NW,315,1.0,3.0,74,0.00,,,0.00,meteohub,2013-01-13 11:37:00,
2013-01-13 03:42:00,31.5,24.4,29.68,NW,315,1.0,3.0,75,0.00,,,0.00,meteohub,2013-01-13 11:42:00,
2013-01-13 03:47:00,31.3,24.3,29.67,NW,315,1.0,2.0,75,0.00,,,0.00,meteohub,2013-01-13 11:47:00,
2013-01-13 03:52:00,31.3,24.3,29.67,West,270,2.0,2.0,75,0.00,,,0.00,meteohub,2013-01-13 11:52:00,
2013-01-13 03:57:00,31.5,24.4,29.67,West,270,2.0,2.0,75,0.00,,,0.00,meteohub,2013-01-13 11:57:00,
2013-01-13 04:02:00,31.5,24.4,29.67,West,270,2.0,2.0,75,0.00,,,0.00,meteohub,2013-01-13 12:02:00,
2013-01-13 04:07:00,31.5,24.4,29.67,West,270,2.0,2.0,75,0.00,,,0.00,meteohub,2013-01-13 12:07:00,
2013-01-13 04:12:00,31.5,24.4,29.66,West,270,1.0,2.0,75,0.00,,,0.00,meteohub,2013-01-13 12:12:00,
2013-01-13 04:17:00,31.5,24.4,29.67,West,270,1.0,2.0,75,0.00,,,0.00,meteohub,2013-01-13 12:17:00,
2013-01-13 04:22:00,31.5,24.4,29.66,West,270,1.0,2.0,75,0.00,,,0.00,meteohub,2013-01-13 12:22:00,
2013-01-13 04:27:00,31.1,23.7,29.66,West,270,1.0,2.0,74,0.00,,,0.00,meteohub,2013-01-13 12:27:00,
2013-01-13 04:32:00,31.1,24.1,29.66,SW,225,2.0,2.0,75,0.00,,,0.00,meteohub,2013-01-13 12:32:00,
2013-01-13 04:37:00,30.7,23.7,29.67,NW,315,1.0,2.0,75,0.00,,,0.00,meteohub,2013-01-13 12:37:00,
2013-01-13 04:42:00,30.6,23.5,29.67,NW,315,0.0,2.0,75,0.00,,,0.00,meteohub,2013-01-13 12:42:00,
2013-01-13 04:47:00,30.4,23.4,29.66,SW,225,2.0,2.0,75,0.00,,,0.00,meteohub,2013-01-13 12:47:00,
2013-01-13 04:52:00,30.2,23.2,29.67,SW,225,1.0,2.0,75,0.00,,,0.00,meteohub,2013-01-13 12:52:00,
2013-01-13 04:57:00,30.0,23.4,29.67,SW,225,2.0,2.0,76,0.00,,,0.00,meteohub,2013-01-13 12:57:00,
2013-01-13 05:02:00,29.7,23.0,29.66,SW,225,1.0,2.0,76,0.00,,,0.00,meteohub,2013-01-13 13:02:00,
2013-01-13 05:07:00,29.7,23.4,29.66,SSE,158,2.0,2.0,77,0.00,,,0.00,meteohub,2013-01-13 13:07:00,
2013-01-13 05:12:00,29.5,23.2,29.67,West,270,1.0,2.0,77,0.00,,,0.00,meteohub,2013-01-13 13:12:00,
2013-01-13 05:17:00,29.5,23.5,29.67,West,270,2.0,4.0,78,0.00,,,0.00,meteohub,2013-01-13 13:17:00,
2013-01-13 05:22:00,29.5,23.5,29.67,NW,315,1.0,4.0,78,0.00,,,0.00,meteohub,2013-01-13 13:22:00,
2013-01-13 05:27:00,29.7,23.7,29.68,North,0,2.0,4.0,78,0.00,,,0.00,meteohub,2013-01-13 13:27:00,
2013-01-13 05:32:00,29.8,24.1,29.68,NW,315,1.0,2.0,79,0.00,,,0.00,meteohub,2013-01-13 13:32:00,
2013-01-13 05:37:00,30.2,24.3,29.68,NW,315,1.0,2.0,78,0.00,,,0.00,meteohub,2013-01-13 13:37:00,
2013-01-13 05:42:00,30.6,24.3,29.68,West,270,1.0,2.0,77,0.00,,,0.00,meteohub,2013-01-13 13:42:00,
2013-01-13 05:47:00,30.7,24.4,29.68,South,180,1.0,2.0,77,0.00,,,0.00,meteohub,2013-01-13 13:47:00,
2013-01-13 05:52:00,30.7,24.4,29.68,North,0,1.0,3.0,77,0.00,,,0.00,meteohub,2013-01-13 13:52:00,
2013-01-13 05:57:00,30.7,24.1,29.68,SSW,203,1.0,3.0,76,0.00,,,0.00,meteohub,2013-01-13 13:57:00,
2013-01-13 06:02:00,30.7,24.1,29.68,SSW,203,0.0,3.0,76,0.00,,,0.00,meteohub,2013-01-13 14:02:00,
2013-01-13 06:07:00,30.7,24.1,29.68,SSW,203,0.0,2.0,76,0.00,,,0.00,meteohub,2013-01-13 14:07:00,
2013-01-13 06:12:00,30.4,23.4,29.68,West,270,1.0,1.0,75,0.00,,,0.00,meteohub,2013-01-13 14:12:00,
2013-01-13 06:17:00,30.0,23.4,29.68,West,270,1.0,1.0,76,0.00,,,0.00,meteohub,2013-01-13 14:17:00,
2013-01-13 06:22:00,29.8,23.2,29.68,West,270,1.0,1.0,76,0.00,,,0.00,meteohub,2013-01-13 14:22:00,
2013-01-13 06:27:00,29.7,23.0,29.69,West,270,1.0,2.0,76,0.00,,,0.00,meteohub,2013-01-13 14:27:00,
2013-01-13 06:32:00,29.7,23.0,29.69,West,270,1.0,2.0,76,0.00,,,0.00,meteohub,2013-01-13 14:32:00,
2013-01-13 06:37:00,29.7,23.0,29.69,West,270,1.0,2.0,76,0.00,,,0.00,meteohub,2013-01-13 14:37:00,
2013-01-13 06:42:00,29.7,23.0,29.70,West,270,1.0,2.0,76,0.00,,,0.00,meteohub,2013-01-13 14:42:00,
2013-01-13 06:47:00,29.8,23.2,29.69,West,270,1.0,2.0,76,0.00,,,0.00,meteohub,2013-01-13 14:47:00,
2013-01-13 06:52:00,29.8,22.8,29.70,West,270,0.0,1.0,75,0.00,,,0.00,meteohub,2013-01-13 14:52:00,
2013-01-13 06:57:00,29.8,22.8,29.70,West,270,0.0,1.0,75,0.00,,,0.00,meteohub,2013-01-13 14:57:00,
2013-01-13 07:02:00,29.7,22.6,29.69,SW,225,2.0,2.0,75,0.00,,,0.00,meteohub,2013-01-13 15:02:00,
2013-01-13 07:07:00,29.8,22.8,29.69,North,0,2.0,2.0,75,0.00,,,0.00,meteohub,2013-01-13 15:07:00,
2013-01-13 07:12:00,30.7,22.8,29.69,NW,315,1.0,2.0,72,0.00,,,0.00,meteohub,2013-01-13 15:12:00,
2013-01-13 07:17:00,31.5,23.2,29.70,NW,315,1.0,2.0,71,0.00,,,0.00,meteohub,2013-01-13 15:17:00,
2013-01-13 07:22:00,32.0,22.6,29.70,West,270,1.0,2.0,68,0.00,,,0.00,meteohub,2013-01-13 15:22:00,
2013-01-13 07:27:00,32.4,22.6,29.69,NE,45,1.0,2.0,67,0.00,,,0.00,meteohub,2013-01-13 15:27:00,
2013-01-13 07:32:00,32.5,22.5,29.70,NE,45,1.0,2.0,66,0.00,,,0.00,meteohub,2013-01-13 15:32:00,
2013-01-13 07:37:00,32.0,21.9,29.71,West,270,1.0,2.0,66,0.00,,,0.00,meteohub,2013-01-13 15:37:00,
2013-01-13 07:42:00,31.5,22.1,29.70,West,270,0.0,2.0,68,0.00,,,0.00,meteohub,2013-01-13 15:42:00,
2013-01-13 07:47:00,30.9,21.9,29.71,West,270,1.0,2.0,69,0.00,,,0.00,meteohub,2013-01-13 15:47:00,
2013-01-13 07:52:00,30.6,21.9,29.71,West,270,1.0,2.0,70,0.00,,,0.00,meteohub,2013-01-13 15:52:00,
2013-01-13 07:57:00,30.2,21.9,29.71,NW,315,1.0,1.0,71,0.00,,,0.00,meteohub,2013-01-13 15:57:00,
2013-01-13 08:02:00,30.2,21.9,29.71,NW,315,1.0,1.0,71,0.00,,,0.00,meteohub,2013-01-13 16:02:00,
2013-01-13 08:07:00,30.2,21.9,29.71,NW,315,1.0,2.0,71,0.00,,,0.00,meteohub,2013-01-13 16:07:00,
2013-01-13 08:12:00,29.8,22.3,29.71,SW,225,1.0,2.0,73,0.00,,,0.00,meteohub,2013-01-13 16:12:00,
2013-01-13 08:17:00,29.7,22.5,29.71,WNW,293,1.0,2.0,74,0.00,,,0.00,meteohub,2013-01-13 16:17:00,
2013-01-13 08:22:00,29.8,22.6,29.71,WSW,248,1.0,2.0,74,0.00,,,0.00,meteohub,2013-01-13 16:22:00,
2013-01-13 08:27:00,29.8,22.6,29.72,SW,225,1.0,2.0,74,0.00,,,0.00,meteohub,2013-01-13 16:27:00,
2013-01-13 08:32:00,30.0,22.8,29.71,North,0,1.0,2.0,74,0.00,,,0.00,meteohub,2013-01-13 16:32:00,
2013-01-13 08:37:00,30.4,22.8,29.71,North,0,1.0,2.0,73,0.00,,,0.00,meteohub,2013-01-13 16:37:00,
2013-01-13 08:42:00,30.7,22.8,29.71,North,0,0.0,2.0,72,0.00,,,0.00,meteohub,2013-01-13 16:42:00,
2013-01-13 08:47:00,31.1,23.2,29.72,West,270,1.0,2.0,72,0.00,,,0.00,meteohub,2013-01-13 16:47:00,
2013-01-13 08:52:00,31.5,23.2,29.72,North,0,2.0,2.0,71,0.00,,,0.00,meteohub,2013-01-13 16:52:00,
2013-01-13 08:57:00,32.0,23.4,29.72,North,0,1.0,2.0,70,0.00,,,0.00,meteohub,2013-01-13 16:57:00,
2013-01-13 09:02:00,32.5,23.5,29.72,NW,315,1.0,2.0,69,0.00,,,0.00,meteohub,2013-01-13 17:02:00,
2013-01-13 09:07:00,33.3,23.5,29.72,West,270,2.0,2.0,67,0.00,,,0.00,meteohub,2013-01-13 17:07:00,
2013-01-13 09:12:00,33.8,23.4,29.72,West,270,2.0,2.0,65,0.00,,,0.00,meteohub,2013-01-13 17:12:00,
2013-01-13 09:17:00,34.5,23.5,29.72,West,270,1.0,2.0,64,0.00,,,0.00,meteohub,2013-01-13 17:17:00,
2013-01-13 09:22:00,35.2,23.9,29.72,NW,315,1.0,2.0,63,0.00,,,0.00,meteohub,2013-01-13 17:22:00,
2013-01-13 09:27:00,35.8,23.7,29.71,North,0,1.0,2.0,61,0.00,,,0.00,meteohub,2013-01-13 17:27:00,
2013-01-13 09:32:00,36.5,23.9,29.71,West,270,2.0,2.0,60,0.00,,,0.00,meteohub,2013-01-13 17:32:00,
2013-01-13 09:38:00,37.0,24.1,29.71,NW,315,2.0,2.0,59,0.00,,,0.00,meteohub,2013-01-13 17:38:00,
2013-01-13 09:43:00,37.6,26.1,29.72,NW,315,1.0,2.0,63,0.00,,,0.00,meteohub,2013-01-13 17:43:00,
2013-01-13 09:48:00,37.9,26.4,29.72,West,270,2.0,2.0,63,0.00,,,0.00,meteohub,2013-01-13 17:48:00,
2013-01-13 09:53:00,38.3,26.4,29.72,West,270,1.0,2.0,62,0.00,,,0.00,meteohub,2013-01-13 17:53:00,
2013-01-13 09:58:00,38.8,26.6,29.72,NW,315,0.0,2.0,61,0.00,,,0.00,meteohub,2013-01-13 17:58:00,
2013-01-13 10:03:00,39.2,26.4,29.72,West,270,2.0,2.0,60,0.00,,,0.00,meteohub,2013-01-13 18:03:00,
2013-01-13 10:08:00,39.9,26.8,29.71,SE,135,1.0,2.0,59,0.00,,,0.00,meteohub,2013-01-13 18:08:00,
2013-01-13 10:13:00,40.5,27.3,29.71,SW,225,1.0,2.0,59,0.00,,,0.00,meteohub,2013-01-13 18:13:00,
2013-01-13 10:18:00,41.0,27.0,29.71,West,270,2.0,2.0,57,0.00,,,0.00,meteohub,2013-01-13 18:18:00,
2013-01-13 10:23:00,41.5,26.6,29.70,West,270,2.0,2.0,55,0.00,,,0.00,meteohub,2013-01-13 18:23:00,
2013-01-13 10:28:00,42.3,26.4,29.70,SW,225,1.0,2.0,53,0.00,,,0.00,meteohub,2013-01-13 18:28:00,
2013-01-13 10:33:00,43.0,26.6,29.70,SW,225,1.0,2.0,52,0.00,,,0.00,meteohub,2013-01-13 18:33:00,
2013-01-13 10:38:00,43.5,26.6,29.70,SW,225,0.0,2.0,51,0.00,,,0.00,meteohub,2013-01-13 18:38:00,
2013-01-13 10:43:00,43.9,26.4,29.70,SW,225,0.0,2.0,50,0.00,,,0.00,meteohub,2013-01-13 18:43:00,
2013-01-13 10:48:00,44.6,26.6,29.70,SW,225,1.0,1.0,49,0.00,,,0.00,meteohub,2013-01-13 18:48:00,
2013-01-13 10:53:00,45.7,27.1,29.70,SW,225,0.0,1.0,48,0.00,,,0.00,meteohub,2013-01-13 18:53:00,
2013-01-13 10:58:00,46.8,27.1,29.69,SE,135,0.0,1.0,46,0.00,,,0.00,meteohub,2013-01-13 18:58:00,
2013-01-13 11:04:00,48.0,28.8,29.69,SE,135,0.0,1.0,47,0.00,,,0.00,meteohub,2013-01-13 19:04:00,
2013-01-13 11:09:00,49.6,28.0,29.69,NE,45,0.0,1.0,43,0.00,,,0.00,meteohub,2013-01-13 19:09:00,
2013-01-13 11:14:00,50.4,27.5,29.69,SE,135,0.0,1.0,41,0.00,,,0.00,meteohub,2013-01-13 19:14:00,
2013-01-13 11:19:00,50.2,27.3,29.68,East,90,0.0,1.0,41,0.00,,,0.00,meteohub,2013-01-13 19:19:00,
2013-01-13 11:24:00,50.4,27.5,29.68,South,180,0.0,0.0,41,0.00,,,0.00,meteohub,2013-01-13 19:24:00,
2013-01-13 11:29:00,50.9,28.6,29.68,SE,135,0.0,0.0,42,0.00,,,0.00,meteohub,2013-01-13 19:29:00,
2013-01-13 11:34:00,50.9,28.6,29.67,SE,135,0.0,0.0,42,0.00,,,0.00,meteohub,2013-01-13 19:34:00,
2013-01-13 11:39:00,50.9,28.6,29.68,SE,135,0.0,0.0,42,0.00,,,0.00,meteohub,2013-01-13 19:39:00,
2013-01-13 11:44:00,50.9,28.6,29.67,East,90,0.0,0.0,42,0.00,,,0.00,meteohub,2013-01-13 19:44:00,
2013-01-13 11:49:00,51.6,29.8,29.67,East,90,0.0,0.0,43,0.00,,,0.00,meteohub,2013-01-13 19:49:00,
2013-01-13 11:54:00,51.8,28.8,29.67,SE,135,0.0,0.0,41,0.00,,,0.00,meteohub,2013-01-13 19:54:00,
2013-01-13 11:59:00,52.2,29.8,29.66,East,90,0.0,0.0,42,0.00,,,0.00,meteohub,2013-01-13 19:59:00,
2013-01-13 12:04:00,52.0,29.7,29.66,East,90,0.0,0.0,42,0.00,,,0.00,meteohub,2013-01-13 20:04:00,
2013-01-13 12:09:00,52.2,29.8,29.66,SE,135,0.0,0.0,42,0.00,,,0.00,meteohub,2013-01-13 20:09:00,
2013-01-13 12:14:00,52.5,30.7,29.65,ENE,68,0.0,0.0,43,0.00,,,0.00,meteohub,2013-01-13 20:14:00,
2013-01-13 12:19:00,52.5,30.7,29.65,ENE,68,0.0,0.0,43,0.00,,,0.00,meteohub,2013-01-13 20:19:00,
2013-01-13 12:24:00,52.9,30.9,29.65,SE,135,0.0,0.0,43,0.00,,,0.00,meteohub,2013-01-13 20:24:00,
2013-01-13 12:29:00,53.1,30.6,29.65,SE,135,0.0,0.0,42,0.00,,,0.00,meteohub,2013-01-13 20:29:00,
2013-01-13 12:35:00,53.4,31.5,29.65,SE,135,0.0,0.0,43,0.00,,,0.00,meteohub,2013-01-13 20:35:00,
2013-01-13 12:40:00,53.8,31.3,29.64,South,180,0.0,0.0,42,0.00,,,0.00,meteohub,2013-01-13 20:40:00,
2013-01-13 12:45:00,53.6,31.1,29.64,SE,135,0.0,0.0,42,0.00,,,0.00,meteohub,2013-01-13 20:45:00,
2013-01-13 12:50:00,53.6,31.1,29.64,SE,135,0.0,0.0,42,0.00,,,0.00,meteohub,2013-01-13 20:50:00,
2013-01-13 12:55:00,53.8,31.3,29.64,East,90,0.0,0.0,42,0.00,,,0.00,meteohub,2013-01-13 20:55:00,
2013-01-13 13:00:00,53.8,30.6,29.64,SE,135,0.0,0.0,41,0.00,,,0.00,meteohub,2013-01-13 21:00:00,
2013-01-13 13:05:00,54.0,30.2,29.64,South,180,0.0,0.0,40,0.00,,,0.00,meteohub,2013-01-13 21:05:00,
2013-01-13 13:10:00,54.0,30.7,29.63,SSE,158,0.0,0.0,41,0.00,,,0.00,meteohub,2013-01-13 21:10:00,
2013-01-13 13:15:00,54.3,31.1,29.63,South,180,0.0,0.0,41,0.00,,,0.00,meteohub,2013-01-13 21:15:00,
2013-01-13 13:20:00,54.7,30.2,29.63,South,180,0.0,0.0,39,0.00,,,0.00,meteohub,2013-01-13 21:20:00,
2013-01-13 13:25:00,55.0,31.1,29.62,ESE,113,0.0,0.0,40,0.00,,,0.00,meteohub,2013-01-13 21:25:00,
2013-01-13 13:30:00,55.4,32.0,29.62,East,90,0.0,0.0,41,0.00,,,0.00,meteohub,2013-01-13 21:30:00,
2013-01-13 13:35:00,55.9,32.5,29.62,SE,135,0.0,0.0,41,0.00,,,0.00,meteohub,2013-01-13 21:35:00,
2013-01-13 13:40:00,56.3,28.9,29.62,SSE,158,0.0,0.0,35,0.00,,,0.00,meteohub,2013-01-13 21:40:00,
2013-01-13 13:45:00,56.7,30.0,29.62,East,90,0.0,0.0,36,0.00,,,0.00,meteohub,2013-01-13 21:45:00,
2013-01-13 13:50:00,56.8,27.3,29.62,South,180,0.0,0.0,32,0.00,,,0.00,meteohub,2013-01-13 21:50:00,
2013-01-13 13:56:00,57.6,27.1,29.61,West,270,0.0,0.0,31,0.00,,,0.00,meteohub,2013-01-13 21:56:00,
2013-01-13 14:01:00,58.5,26.2,29.61,South,180,0.0,0.0,29,0.00,,,0.00,meteohub,2013-01-13 22:01:00,
2013-01-13 14:06:00,58.6,24.8,29.61,East,90,0.0,0.0,27,0.00,,,0.00,meteohub,2013-01-13 22:06:00,
2013-01-13 14:11:00,59.2,24.3,29.60,East,90,0.0,0.0,26,0.00,,,0.00,meteohub,2013-01-13 22:11:00,
2013-01-13 14:16:00,59.5,23.7,29.61,WNW,293,0.0,0.0,25,0.00,,,0.00,meteohub,2013-01-13 22:16:00,
2013-01-13 14:21:00,59.7,23.9,29.61,SE,135,0.0,0.0,25,0.00,,,0.00,meteohub,2013-01-13 22:21:00,
2013-01-13 14:26:00,59.2,22.5,29.61,SE,135,0.0,0.0,24,0.00,,,0.00,meteohub,2013-01-13 22:26:00,
2013-01-13 14:31:00,59.2,22.5,29.61,SW,225,0.0,0.0,24,0.00,,,0.00,meteohub,2013-01-13 22:31:00,
2013-01-13 14:36:00,58.6,22.8,29.60,NW,315,0.0,0.0,25,0.00,,,0.00,meteohub,2013-01-13 22:36:00,
2013-01-13 14:41:00,58.5,22.8,29.60,East,90,0.0,0.0,25,0.00,,,0.00,meteohub,2013-01-13 22:41:00,
2013-01-13 14:46:00,58.1,23.4,29.60,West,270,0.0,0.0,26,0.00,,,0.00,meteohub,2013-01-13 22:46:00,
2013-01-13 14:51:00,58.3,23.5,29.60,West,270,0.0,0.0,26,0.00,,,0.00,meteohub,2013-01-13 22:51:00,
2013-01-13 14:56:00,57.9,22.3,29.60,SE,135,0.0,0.0,25,0.00,,,0.00,meteohub,2013-01-13 22:56:00,
2013-01-13 15:01:00,57.0,22.5,29.60,SW,225,0.0,0.0,26,0.00,,,0.00,meteohub,2013-01-13 23:01:00,
2013-01-13 15:06:00,57.4,22.8,29.60,North,0,0.0,0.0,26,0.00,,,0.00,meteohub,2013-01-13 23:06:00,
2013-01-13 15:11:00,57.6,23.0,29.60,West,270,0.0,0.0,26,0.00,,,0.00,meteohub,2013-01-13 23:11:00,
2013-01-13 15:16:00,58.3,24.4,29.60,South,180,0.0,0.0,27,0.00,,,0.00,meteohub,2013-01-13 23:16:00,
2013-01-13 15:21:00,58.6,23.9,29.59,East,90,0.0,0.0,26,0.00,,,0.00,meteohub,2013-01-13 23:21:00,
2013-01-13 15:27:00,58.8,24.1,29.60,West,270,0.0,0.0,26,0.00,,,0.00,meteohub,2013-01-13 23:27:00,
2013-01-13 15:32:00,59.2,23.4,29.59,NW,315,0.0,0.0,25,0.00,,,0.00,meteohub,2013-01-13 23:32:00,
2013-01-13 15:37:00,59.2,23.4,29.59,NE,45,0.0,0.0,25,0.00,,,0.00,meteohub,2013-01-13 23:37:00,
2013-01-13 15:42:00,59.0,23.2,29.59,NE,45,0.0,0.0,25,0.00,,,0.00,meteohub,2013-01-13 23:42:00,
2013-01-13 15:47:00,58.8,24.1,29.59,NE,45,0.0,0.0,26,0.00,,,0.00,meteohub,2013-01-13 23:47:00,
2013-01-13 15:52:00,58.6,24.8,29.58,NW,315,0.0,0.0,27,0.00,,,0.00,meteohub,2013-01-13 23:52:00,
2013-01-13 15:57:00,58.5,24.6,29.58,North,0,0.0,0.0,27,0.00,,,0.00,meteohub,2013-01-13 23:57:00,
2013-01-13 16:02:00,56.8,23.2,29.58,SW,225,0.0,0.0,27,0.00,,,0.00,meteohub,2013-01-14 00:02:00,
2013-01-13 16:07:00,55.2,22.6,29.58,South,180,0.0,0.0,28,0.00,,,0.00,meteohub,2013-01-14 00:07:00,
2013-01-13 16:12:00,53.6,21.2,29.58,NW,315,0.0,0.0,28,0.00,,,0.00,meteohub,2013-01-14 00:12:00,
2013-01-13 16:17:00,52.0,21.6,29.58,NW,315,0.0,0.0,30,0.00,,,0.00,meteohub,2013-01-14 00:17:00,
2013-01-13 16:22:00,51.1,22.3,29.58,NW,315,0.0,0.0,32,0.00,,,0.00,meteohub,2013-01-14 00:22:00,
2013-01-13 16:27:00,50.5,22.5,29.57,South,180,0.0,0.0,33,0.00,,,0.00,meteohub,2013-01-14 00:27:00,
2013-01-13 16:32:00,50.0,22.1,29.57,South,180,0.0,0.0,33,0.00,,,0.00,meteohub,2013-01-14 00:32:00,
2013-01-13 16:37:00,50.0,22.1,29.57,South,180,0.0,0.0,33,0.00,,,0.00,meteohub,2013-01-14 00:37:00,
2013-01-13 16:42:00,48.7,23.5,29.57,West,270,0.0,0.0,37,0.00,,,0.00,meteohub,2013-01-14 00:42:00,
2013-01-13 16:47:00,48.2,23.2,29.58,NW,315,0.0,0.0,37,0.00,,,0.00,meteohub,2013-01-14 00:47:00,
2013-01-13 16:52:00,47.8,24.6,29.58,East,90,0.0,0.0,40,0.00,,,0.00,meteohub,2013-01-14 00:52:00,
2013-01-13 16:57:00,47.3,24.8,29.58,West,270,0.0,0.0,41,0.00,,,0.00,meteohub,2013-01-14 00:57:00,
2013-01-13 17:02:00,46.8,24.8,29.58,NE,45,0.0,0.0,42,0.00,,,0.00,meteohub,2013-01-14 01:02:00,
2013-01-13 17:07:00,46.2,24.4,29.58,SW,225,0.0,0.0,42,0.00,,,0.00,meteohub,2013-01-14 01:07:00,
2013-01-13 17:12:00,45.5,24.3,29.58,SW,225,0.0,0.0,43,0.00,,,0.00,meteohub,2013-01-14 01:12:00,
2013-01-13 17:17:00,45.0,24.4,29.58,West,270,0.0,0.0,44,0.00,,,0.00,meteohub,2013-01-14 01:17:00,
2013-01-13 17:22:00,44.2,24.8,29.59,NE,45,0.0,0.0,46,0.00,,,0.00,meteohub,2013-01-14 01:22:00,
2013-01-13 17:27:00,43.9,24.4,29.58,West,270,0.0,0.0,46,0.00,,,0.00,meteohub,2013-01-14 01:27:00,
2013-01-13 17:32:00,43.5,24.1,29.59,East,90,0.0,0.0,46,0.00,,,0.00,meteohub,2013-01-14 01:32:00,
2013-01-13 17:37:00,43.2,23.2,29.60,WNW,293,0.0,0.0,45,0.00,,,0.00,meteohub,2013-01-14 01:37:00,
2013-01-13 17:42:00,43.0,22.6,29.59,South,180,0.0,0.0,44,0.00,,,0.00,meteohub,2013-01-14 01:42:00,
2013-01-13 17:47:00,43.0,22.1,29.60,East,90,0.0,0.0,43,0.00,,,0.00,meteohub,2013-01-14 01:47:00,
2013-01-13 17:52:00,42.8,21.9,29.60,SW,225,0.0,0.0,43,0.00,,,0.00,meteohub,2013-01-14 01:52:00,
2013-01-13 17:57:00,42.8,21.9,29.60,South,180,0.0,0.0,43,0.00,,,0.00,meteohub,2013-01-14 01:57:00,
2013-01-13 18:02:00,42.6,22.3,29.60,NW,315,0.0,0.0,44,0.00,,,0.00,meteohub,2013-01-14 02:02:00,
2013-01-13 18:07:00,42.6,22.3,29.60,NW,315,0.0,0.0,44,0.00,,,0.00,meteohub,2013-01-14 02:07:00,
2013-01-13 18:12:00,42.4,22.1,29.60,East,90,0.0,0.0,44,0.00,,,0.00,meteohub,2013-01-14 02:12:00,
2013-01-13 18:17:00,42.3,21.9,29.60,WSW,248,0.0,0.0,44,0.00,,,0.00,meteohub,2013-01-14 02:17:00,
2013-01-13 18:22:00,42.1,22.3,29.60,SE,135,0.0,0.0,45,0.00,,,0.00,meteohub,2013-01-14 02:22:00,
2013-01-13 18:27:00,41.7,21.9,29.60,North,0,0.0,0.0,45,0.00,,,0.00,meteohub,2013-01-14 02:27:00,
2013-01-13 18:32:00,41.5,21.7,29.61,West,270,0.0,0.0,45,0.00,,,0.00,meteohub,2013-01-14 02:32:00,
2013-01-13 18:37:00,41.5,21.7,29.60,West,270,0.0,0.0,45,0.00,,,0.00,meteohub,2013-01-14 02:37:00,
2013-01-13 18:42:00,41.4,21.6,29.60,NW,315,0.0,0.0,45,0.00,,,0.00,meteohub,2013-01-14 02:42:00,
2013-01-13 18:47:00,41.5,21.7,29.61,South,180,0.0,0.0,45,0.00,,,0.00,meteohub,2013-01-14 02:47:00,
2013-01-13 18:52:00,41.5,21.7,29.61,SW,225,0.0,0.0,45,0.00,,,0.00,meteohub,2013-01-14 02:52:00,
2013-01-13 18:57:00,41.4,21.6,29.61,NW,315,0.0,0.0,45,0.00,,,0.00,meteohub,2013-01-14 02:57:00,
2013-01-13 19:02:00,41.2,21.9,29.61,West,270,0.0,0.0,46,0.00,,,0.00,meteohub,2013-01-14 03:02:00,
2013-01-13 19:07:00,41.0,22.3,29.61,West,270,0.0,0.0,47,0.00,,,0.00,meteohub,2013-01-14 03:07:00,
2013-01-13 19:12:00,40.6,23.0,29.61,West,270,0.0,0.0,49,0.00,,,0.00,meteohub,2013-01-14 03:12:00,
2013-01-13 19:17:00,40.5,23.4,29.61,NE,45,0.0,0.0,50,0.00,,,0.00,meteohub,2013-01-14 03:17:00,
2013-01-13 19:22:00,40.1,23.4,29.62,NE,45,0.0,0.0,51,0.00,,,0.00,meteohub,2013-01-14 03:22:00,
2013-01-13 19:27:00,39.6,23.0,29.62,NE,45,0.0,0.0,51,0.00,,,0.00,meteohub,2013-01-14 03:27:00,
2013-01-13 19:32:00,39.2,22.6,29.62,NW,315,0.0,0.0,51,0.00,,,0.00,meteohub,2013-01-14 03:32:00,
2013-01-13 19:37:00,38.7,23.0,29.62,NW,315,0.0,0.0,53,0.00,,,0.00,meteohub,2013-01-14 03:37:00,
2013-01-13 19:42:00,38.3,23.2,29.62,NW,315,0.0,0.0,54,0.00,,,0.00,meteohub,2013-01-14 03:42:00,
2013-01-13 19:47:00,38.1,23.0,29.63,NW,315,0.0,0.0,54,0.00,,,0.00,meteohub,2013-01-14 03:47:00,
2013-01-13 19:52:00,37.8,22.6,29.63,NW,315,0.0,0.0,54,0.00,,,0.00,meteohub,2013-01-14 03:52:00,
2013-01-13 19:57:00,37.6,22.8,29.63,NW,315,0.0,0.0,55,0.00,,,0.00,meteohub,2013-01-14 03:57:00,
2013-01-13 20:02:00,37.6,22.8,29.63,NW,315,0.0,0.0,55,0.00,,,0.00,meteohub,2013-01-14 04:02:00,
2013-01-13 20:07:00,37.0,21.0,29.64,NW,315,0.0,0.0,52,0.00,,,0.00,meteohub,2013-01-14 04:07:00,
2013-01-13 20:12:00,36.9,21.4,29.64,NW,315,0.0,0.0,53,0.00,,,0.00,meteohub,2013-01-14 04:12:00,
2013-01-13 20:17:00,36.9,21.4,29.64,NW,315,0.0,0.0,53,0.00,,,0.00,meteohub,2013-01-14 04:17:00,
2013-01-13 20:22:00,36.7,21.2,29.64,NW,315,0.0,0.0,53,0.00,,,0.00,meteohub,2013-01-14 04:22:00,
2013-01-13 20:28:00,36.7,21.6,29.64,NW,315,0.0,0.0,54,0.00,,,0.00,meteohub,2013-01-14 04:28:00,
2013-01-13 20:33:00,36.7,22.1,29.64,NW,315,0.0,0.0,55,0.00,,,0.00,meteohub,2013-01-14 04:33:00,
2013-01-13 20:38:00,36.5,21.9,29.64,NW,315,0.0,0.0,55,0.00,,,0.00,meteohub,2013-01-14 04:38:00,
2013-01-13 20:43:00,36.5,22.3,29.65,NW,315,0.0,0.0,56,0.00,,,0.00,meteohub,2013-01-14 04:43:00,
2013-01-13 20:48:00,36.3,22.1,29.64,NW,315,0.0,0.0,56,0.00,,,0.00,meteohub,2013-01-14 04:48:00,
2013-01-13 20:53:00,36.5,22.3,29.65,NW,315,0.0,0.0,56,0.00,,,0.00,meteohub,2013-01-14 04:53:00,
2013-01-13 20:58:00,36.5,22.3,29.64,NW,315,0.0,0.0,56,0.00,,,0.00,meteohub,2013-01-14 04:58:00,
2013-01-13 21:01:00,36.5,22.6,29.65,NW,315,0.0,0.0,57,0.00,,,0.00,meteohub,2013-01-14 05:01:00,
2013-01-13 21:02:00,36.5,22.6,29.65,NW,315,0.0,0.0,57,0.00,,,0.00,meteohub,2013-01-14 05:02:00,
2013-01-13 21:03:00,36.5,22.6,29.64,NW,315,0.0,0.0,57,0.00,,,0.00,meteohub,2013-01-14 05:03:00,
2013-01-13 21:08:00,36.3,22.5,29.64,NW,315,0.0,0.0,57,0.00,,,0.00,meteohub,2013-01-14 05:08:00,
2013-01-13 21:13:00,36.0,22.3,29.64,NW,315,0.0,0.0,57,0.00,,,0.00,meteohub,2013-01-14 05:13:00,
2013-01-13 21:18:00,35.8,22.5,29.64,NW,315,0.0,0.0,58,0.00,,,0.00,meteohub,2013-01-14 05:18:00,
2013-01-13 21:23:00,35.6,22.3,29.64,NW,315,0.0,0.0,58,0.00,,,0.00,meteohub,2013-01-14 05:23:00,
2013-01-13 21:28:00,35.6,22.3,29.64,NW,315,0.0,0.0,58,0.00,,,0.00,meteohub,2013-01-14 05:28:00,
2013-01-13 21:33:00,35.4,22.5,29.65,NW,315,0.0,0.0,59,0.00,,,0.00,meteohub,2013-01-14 05:33:00,
2013-01-13 21:38:00,35.2,22.3,29.65,NW,315,0.0,0.0,59,0.00,,,0.00,meteohub,2013-01-14 05:38:00,
2013-01-13 21:43:00,35.4,22.5,29.64,NW,315,0.0,0.0,59,0.00,,,0.00,meteohub,2013-01-14 05:43:00,
2013-01-13 21:49:00,35.4,22.5,29.64,NW,315,0.0,0.0,59,0.00,,,0.00,meteohub,2013-01-14 05:49:00,
2013-01-13 21:54:00,35.6,22.3,29.64,NW,315,0.0,0.0,58,0.00,,,0.00,meteohub,2013-01-14 05:54:00,
2013-01-13 21:59:00,35.8,22.5,29.64,NW,315,0.0,0.0,58,0.00,,,0.00,meteohub,2013-01-14 05:59:00,
2013-01-13 22:04:00,35.8,22.5,29.64,NW,315,0.0,0.0,58,0.00,,,0.00,meteohub,2013-01-14 06:04:00,
2013-01-13 22:09:00,36.1,21.9,29.65,NW,315,0.0,0.0,56,0.00,,,0.00,meteohub,2013-01-14 06:09:00,
2013-01-13 22:14:00,36.3,21.7,29.64,NW,315,0.0,0.0,55,0.00,,,0.00,meteohub,2013-01-14 06:14:00,
2013-01-13 22:19:00,36.7,21.2,29.65,NE,45,0.0,0.0,53,0.00,,,0.00,meteohub,2013-01-14 06:19:00,
2013-01-13 22:24:00,37.0,20.7,29.64,West,270,0.0,0.0,51,0.00,,,0.00,meteohub,2013-01-14 06:24:00,
2013-01-13 22:30:00,37.4,22.3,29.65,West,270,0.0,0.0,54,0.00,,,0.00,meteohub,2013-01-14 06:30:00,
2013-01-13 22:35:00,37.6,21.9,29.65,North,0,0.0,0.0,53,0.00,,,0.00,meteohub,2013-01-14 06:35:00,
2013-01-13 22:40:00,37.8,22.1,29.65,East,90,0.0,0.0,53,0.00,,,0.00,meteohub,2013-01-14 06:40:00,
2013-01-13 22:45:00,37.9,21.9,29.65,SW,225,0.0,0.0,52,0.00,,,0.00,meteohub,2013-01-14 06:45:00,
2013-01-13 22:50:00,37.9,21.9,29.65,NW,315,0.0,0.0,52,0.00,,,0.00,meteohub,2013-01-14 06:50:00,
2013-01-13 22:55:00,38.3,21.2,29.65,WNW,293,0.0,0.0,50,0.00,,,0.00,meteohub,2013-01-14 06:55:00,
2013-01-13 23:00:00,38.5,21.0,29.65,West,270,0.0,0.0,49,0.00,,,0.00,meteohub,2013-01-14 07:00:00,
2013-01-13 23:05:00,38.8,20.8,29.65,SW,225,0.0,0.0,48,0.00,,,0.00,meteohub,2013-01-14 07:05:00,
2013-01-13 23:10:00,39.0,20.5,29.65,West,270,0.0,0.0,47,0.00,,,0.00,meteohub,2013-01-14 07:10:00,
2013-01-13 23:15:00,39.2,19.6,29.65,North,0,0.0,0.0,45,0.00,,,0.00,meteohub,2013-01-14 07:15:00,
2013-01-13 23:20:00,39.4,20.3,29.66,North,0,0.0,0.0,46,0.00,,,0.00,meteohub,2013-01-14 07:20:00,
2013-01-13 23:26:00,39.4,19.8,29.66,NW,315,0.0,0.0,45,0.00,,,0.00,meteohub,2013-01-14 07:26:00,
2013-01-13 23:31:00,39.4,19.8,29.66,NW,315,0.0,0.0,45,0.00,,,0.00,meteohub,2013-01-14 07:31:00,
2013-01-13 23:36:00,39.4,19.8,29.66,NE,45,0.0,0.0,45,0.00,,,0.00,meteohub,2013-01-14 07:36:00,
2013-01-13 23:41:00,39.4,19.8,29.66,North,0,0.0,0.0,45,0.00,,,0.00,meteohub,2013-01-14 07:41:00,
2013-01-13 23:46:00,39.4,19.8,29.66,NW,315,0.0,0.0,45,0.00,,,0.00,meteohub,2013-01-14 07:46:00,
2013-01-13 23:51:00,39.6,19.9,29.67,North,0,0.0,0.0,45,0.00,,,0.00,meteohub,2013-01-14 07:51:00,
2013-01-13 23:56:00,39.6,19.9,29.67,East,90,0.0,0.0,45,0.00,,,0.00,meteohub,2013-01-14 07:56:00,